Time;durP1;ratioP1;P1;durP2;ratioP2;P2;SDS_P1;SDS_P2;PMS_P1;PMS_P2;Temp;Humidity;BMP_temperature;BMP_pressure;BME280_temperature;BME280_humidity;BME280_pressure;Samples;Min_cycle;Max_cycle;Signal;HPM_P1;HPM_P2
2022/12/01 01:44:54;;;;;;;2.10;1.10;;;;;;;-0.46;52.65;100745.52;30786;1334;3013224;-60
2022/12/01 01:47:25;;;;;;;4.50;1.20;;;;;;;-0.37;52.24;100746.60;24521;1334;3069123;-60
2022/12/01 01:49:55;;;;;;;4.30;1.60;;;;;;;-0.36;51.78;100742.83;24497;1327;3026377;-60
2022/12/01 01:52:24;;;;;;;2.90;1.40;;;;;;;-0.33;51.62;100745.24;24478;1337;3025874;-62
2022/12/01 01:54:53;;;;;;;2.50;0.90;;;;;;;-0.36;51.46;100740.94;24430;1336;3030400;-63
2022/12/01 01:57:26;;;;;;;5.10;1.20;;;;;;;-0.16;51.41;100741.88;23868;1331;4326471;-60
2022/12/01 02:00:08;;;;;;;3.80;1.40;;;;;;;-0.16;50.94;100740.66;24524;1331;3048728;-63
2022/12/01 02:02:46;;;;;;;3.70;1.10;;;;;;;-0.26;50.99;100737.36;24499;1331;3069462;-59
2022/12/01 02:05:45;;;;;;;7.50;1.20;;;;;;;-0.18;50.87;100735.84;24535;1323;3026148;-59
2022/12/01 02:08:14;;;;;;;3.90;1.50;;;;;;;-0.12;50.33;100736.89;24481;1332;3056279;-61
2022/12/01 02:11:12;;;;;;;4.10;1.20;;;;;;;-0.20;50.58;100738.94;24547;1330;3026177;-59
2022/12/01 02:13:44;;;;;;;5.40;1.40;;;;;;;-0.10;50.56;100739.31;24502;1320;3050336;-58
2022/12/01 02:16:15;;;;;;;2.20;1.20;;;;;;;0.04;50.33;100738.15;24556;1331;3025199;-58
2022/12/01 02:19:02;;;;;;;3.00;1.00;;;;;;;-0.00;50.34;100735.04;24558;1331;3026986;-63
2022/12/01 02:21:49;;;;;;;4.20;1.20;;;;;;;-0.02;50.36;100734.86;24529;1331;3053196;-63
2022/12/01 02:24:56;;;;;;;2.40;1.00;;;;;;;-0.10;50.40;100732.42;24521;1330;3050655;-58
2022/12/01 02:27:50;;;;;;;4.30;1.20;;;;;;;-0.12;50.43;100732.77;24482;1329;3053365;-61
2022/12/01 02:30:37;;;;;;;2.80;1.00;;;;;;;-0.13;50.30;100732.06;24532;1323;3049458;-62
2022/12/01 02:33:34;;;;;;;2.70;0.80;;;;;;;-0.06;50.57;100733.30;24484;1330;3069132;-59
2022/12/01 02:36:14;;;;;;;3.30;1.30;;;;;;;-0.12;50.45;100733.97;24600;1332;3050604;-59
2022/12/01 02:38:53;;;;;;;2.00;1.00;;;;;;;-0.04;50.64;100734.16;24588;1340;3056766;-63
2022/12/01 02:41:25;;;;;;;3.60;1.20;;;;;;;0.09;50.40;100731.27;24533;1331;3052336;-60
2022/12/01 02:44:32;;;;;;;2.90;1.20;;;;;;;0.15;50.12;100728.54;24526;1338;3028431;-62
2022/12/01 02:47:12;;;;;;;4.20;1.20;;;;;;;-0.11;50.23;100728.11;24506;1324;3050681;-60
2022/12/01 02:49:45;;;;;;;3.00;1.10;;;;;;;-0.28;51.00;100724.27;24531;1331;3052818;-62
2022/12/01 02:52:14;;;;;;;3.30;1.30;;;;;;;-0.06;50.51;100722.98;24532;1341;3027637;-64
2022/12/01 02:54:44;;;;;;;8.50;1.10;;;;;;;-0.16;50.41;100723.28;24480;1322;3028356;-62
2022/12/01 02:57:14;;;;;;;1.90;1.00;;;;;;;-0.21;50.95;100724.80;24504;1331;3052510;-60
2022/12/01 02:59:46;;;;;;;2.20;1.20;;;;;;;-0.15;50.98;100730.86;24498;1324;3027127;-59
2022/12/01 03:02:43;;;;;;;2.40;0.90;;;;;;;-0.14;51.04;100725.17;24499;1330;3029258;-61
2022/12/01 03:05:27;;;;;;;1.50;0.80;;;;;;;-0.14;50.70;100727.08;24523;1330;3049669;-58
2022/12/01 03:08:32;;;;;;;2.20;0.80;;;;;;;-0.19;50.87;100727.23;24529;1330;3056859;-63
2022/12/01 03:11:02;;;;;;;2.60;1.20;;;;;;;-0.33;51.28;100731.30;24495;1329;3052201;-65
2022/12/01 03:13:41;;;;;;;3.60;1.00;;;;;;;-0.31;51.49;100729.95;24497;1334;3026020;-60
2022/12/01 03:16:13;;;;;;;3.00;0.90;;;;;;;-0.34;51.40;100729.75;24565;1324;3050292;-61
2022/12/01 03:18:52;;;;;;;1.70;0.90;;;;;;;-0.36;51.76;100732.48;24534;1332;3026441;-61
2022/12/01 03:21:34;;;;;;;3.10;1.00;;;;;;;-0.35;51.77;100731.64;24485;1331;3049510;-59
2022/12/01 03:24:07;;;;;;;3.80;1.20;;;;;;;-0.36;52.15;100731.45;24495;1331;3069103;-60
2022/12/01 03:26:36;;;;;;;1.90;1.00;;;;;;;-0.30;52.21;100728.90;24549;1331;3026636;-61
2022/12/01 03:29:40;;;;;;;2.60;1.50;;;;;;;-0.30;52.17;100727.88;24509;1327;3028653;-61
2022/12/01 03:32:15;;;;;;;1.90;1.10;;;;;;;-0.33;52.36;100725.96;24503;1331;3069324;-57
2022/12/01 03:34:56;;;;;;;4.10;1.10;;;;;;;-0.30;52.44;100721.33;24532;1332;3048942;-60
2022/12/01 03:37:48;;;;;;;2.80;0.90;;;;;;;-0.36;52.75;100718.73;24503;1331;3055446;-59
2022/12/01 03:40:18;;;;;;;3.30;1.00;;;;;;;-0.40;52.60;100721.11;24497;1325;3052036;-61
2022/12/01 03:42:54;;;;;;;2.40;1.10;;;;;;;-0.43;53.05;100721.95;24556;1331;3028104;-60
2022/12/01 03:45:27;;;;;;;2.90;1.00;;;;;;;-0.56;53.31;100721.55;24443;1327;3050345;-58
2022/12/01 03:47:56;;;;;;;2.50;0.90;;;;;;;-0.44;53.24;100719.36;24576;1323;3026239;-60
2022/12/01 03:50:34;;;;;;;3.20;1.40;;;;;;;-0.45;53.26;100716.44;24476;1334;3028448;-58
2022/12/01 03:53:05;;;;;;;1.90;1.00;;;;;;;-0.46;53.30;100721.95;24531;1331;3069453;-64
2022/12/01 03:55:40;;;;;;;2.10;1.00;;;;;;;-0.54;53.59;100718.64;24495;1331;3026608;-62
2022/12/01 03:58:11;;;;;;;4.20;1.60;;;;;;;-0.57;53.81;100722.23;24528;1340;3056625;-61
2022/12/01 04:00:42;;;;;;;2.70;1.20;;;;;;;-0.45;53.81;100717.65;24510;1324;3026362;-58
2022/12/01 04:03:18;;;;;;;1.90;1.10;;;;;;;-0.38;53.88;100722.33;24511;1331;3026700;-60
2022/12/01 04:05:47;;;;;;;1.90;0.90;;;;;;;-0.55;54.48;100723.45;24514;1324;3051656;-62
2022/12/01 04:08:16;;;;;;;3.00;1.30;;;;;;;-0.50;54.42;100723.31;24478;1325;3028246;-58
2022/12/01 04:10:45;;;;;;;4.80;1.10;;;;;;;-0.47;54.27;100721.95;24585;1336;3053096;-61
2022/12/01 04:13:21;;;;;;;2.40;1.00;;;;;;;-0.51;54.56;100723.30;24484;1331;3026044;-63
2022/12/01 04:15:51;;;;;;;5.00;1.10;;;;;;;-0.58;54.96;100716.39;24523;1331;3052219;-61
2022/12/01 04:18:21;;;;;;;2.60;1.10;;;;;;;-0.58;55.12;100723.61;24515;1331;3025986;-64
2022/12/01 04:20:50;;;;;;;3.00;1.10;;;;;;;-0.54;55.20;100720.02;24538;1324;3026206;-61
2022/12/01 04:26:07;;;;;;;4.70;1.30;;;;;;;-0.51;55.22;100729.84;24494;1331;3049944;-61
2022/12/01 04:28:36;;;;;;;2.10;1.00;;;;;;;-0.47;55.14;100734.16;24632;1324;3025205;-61
2022/12/01 04:31:05;;;;;;;2.60;1.20;;;;;;;-0.46;55.54;100731.92;24623;1330;3053466;-61
2022/12/01 04:33:34;;;;;;;4.90;1.10;;;;;;;-0.42;55.34;100737.63;24500;1333;3026119;-63
2022/12/01 04:36:04;;;;;;;1.20;0.80;;;;;;;-0.36;55.42;100740.23;24501;1330;3050623;-63
2022/12/01 04:38:35;;;;;;;2.30;1.10;;;;;;;-0.42;55.43;100737.63;24563;1333;3026748;-61
2022/12/01 04:41:11;;;;;;;2.10;1.00;;;;;;;-0.42;55.35;100733.15;24489;1337;3026341;-61
2022/12/01 04:43:40;;;;;;;1.90;1.10;;;;;;;-0.36;55.24;100741.62;24514;1331;3068919;-61
2022/12/01 04:46:09;;;;;;;2.10;1.10;;;;;;;-0.34;54.96;100744.91;24502;1324;3025940;-59
2022/12/01 04:48:38;;;;;;;2.70;0.90;;;;;;;-0.34;55.27;100744.73;24538;1331;3048711;-62
2022/12/01 04:51:07;;;;;;;3.10;1.20;;;;;;;-0.38;55.62;100741.61;24591;1329;3025873;-59
2022/12/01 04:53:37;;;;;;;3.40;1.20;;;;;;;-0.36;55.73;100741.27;24599;1324;3027932;-58
2022/12/01 04:56:06;;;;;;;1.90;1.10;;;;;;;-0.36;55.47;100745.06;24593;1331;3049510;-63
2022/12/01 04:58:36;;;;;;;4.20;1.30;;;;;;;-0.43;55.98;100748.30;24523;1327;3028504;-60
2022/12/01 05:01:07;;;;;;;4.70;1.10;;;;;;;-0.35;55.81;100744.37;24533;1330;3027593;-60
2022/12/01 05:03:40;;;;;;;4.60;1.40;;;;;;;-0.40;55.93;100741.77;24537;1327;3026759;-61
2022/12/01 05:06:11;;;;;;;6.10;1.50;;;;;;;-0.53;56.12;100747.23;24522;1325;3052981;-62
2022/12/01 05:08:41;;;;;;;2.90;1.10;;;;;;;-0.50;56.07;100752.92;24521;1332;3026054;-64
2022/12/01 05:11:11;;;;;;;2.80;1.10;;;;;;;-0.55;56.22;100757.88;24526;1324;3028004;-60
2022/12/01 05:13:44;;;;;;;2.60;1.00;;;;;;;-0.59;56.25;100753.89;24471;1323;3052092;-60
2022/12/01 05:16:17;;;;;;;3.10;1.40;;;;;;;-0.64;56.34;100757.31;24517;1337;3028737;-60
2022/12/01 05:18:48;;;;;;;2.70;1.30;;;;;;;-0.61;56.65;100749.92;24498;1331;3029361;-60
2022/12/01 05:21:17;;;;;;;2.30;1.40;;;;;;;-0.75;57.17;100752.42;24509;1334;3026140;-61
2022/12/01 05:23:46;;;;;;;4.30;1.60;;;;;;;-0.62;56.73;100745.45;24534;1323;3028303;-61
2022/12/01 05:26:15;;;;;;;5.50;1.50;;;;;;;-0.65;57.03;100752.30;24488;1337;3050876;-59
2022/12/01 05:28:44;;;;;;;3.50;1.30;;;;;;;-0.59;56.55;100759.75;24559;1327;3026189;-60
2022/12/01 05:31:13;;;;;;;2.80;1.20;;;;;;;-0.62;56.63;100761.80;24597;1332;3051787;-60
2022/12/01 05:33:42;;;;;;;5.20;1.70;;;;;;;-0.58;56.69;100763.38;24531;1324;3028705;-62
2022/12/01 05:36:10;;;;;;;2.80;1.10;;;;;;;-0.52;56.41;100763.58;24489;1330;3051133;-62
2022/12/01 05:38:40;;;;;;;3.70;1.50;;;;;;;-0.48;56.33;100761.02;24590;1336;3026073;-62
2022/12/01 05:41:09;;;;;;;4.50;1.20;;;;;;;-0.63;56.65;100763.52;24489;1334;3028411;-64
2022/12/01 05:43:38;;;;;;;5.70;1.60;;;;;;;-0.78;57.16;100766.69;24539;1338;3051171;-60
2022/12/01 05:46:07;;;;;;;2.90;1.30;;;;;;;-0.93;57.46;100766.92;24565;1327;3028706;-58
2022/12/01 05:48:36;;;;;;;3.30;1.20;;;;;;;-0.81;57.29;100767.70;24537;1325;3056319;-61
2022/12/01 05:51:10;;;;;;;4.40;1.70;;;;;;;-0.76;57.32;100765.31;24539;1331;3028081;-60
2022/12/01 05:53:39;;;;;;;5.10;1.80;;;;;;;-0.80;57.40;100768.22;24476;1331;3054228;-60
2022/12/01 05:56:08;;;;;;;2.60;1.10;;;;;;;-0.75;56.95;100767.91;24499;1322;3028774;-61
2022/12/01 05:58:37;;;;;;;3.50;1.80;;;;;;;-0.78;57.29;100768.75;24553;1340;3051056;-56
2022/12/01 06:01:06;;;;;;;5.10;1.50;;;;;;;-0.71;56.82;100771.73;24508;1322;3028591;-61
2022/12/01 06:03:36;;;;;;;3.30;1.40;;;;;;;-0.68;57.13;100768.83;24604;1338;3055977;-61
2022/12/01 06:06:05;;;;;;;2.40;1.50;;;;;;;-0.57;56.74;100771.46;24494;1324;3028709;-60
2022/12/01 06:08:34;;;;;;;3.50;1.50;;;;;;;-0.53;56.50;100766.31;24576;1331;3049772;-59
2022/12/01 06:11:03;;;;;;;4.00;1.40;;;;;;;-0.49;56.30;100772.20;24521;1308;3026353;-59
2022/12/01 06:13:32;;;;;;;3.90;1.70;;;;;;;-0.49;56.45;100770.98;24510;1331;3069085;-57
2022/12/01 06:16:30;;;;;;;3.40;1.30;;;;;;;-0.58;56.47;100766.98;24480;1331;3028150;-60
2022/12/01 06:18:59;;;;;;;5.60;1.20;;;;;;;-0.45;56.30;100763.61;24501;1331;3057167;-58
2022/12/01 06:21:28;;;;;;;4.50;1.40;;;;;;;-0.39;56.21;100758.48;24528;1340;3025303;-58
2022/12/01 06:23:57;;;;;;;5.10;1.40;;;;;;;-0.46;56.65;100760.86;24532;1331;3050185;-61
2022/12/01 06:26:26;;;;;;;3.80;1.50;;;;;;;-0.35;56.22;100758.83;24557;1324;3026372;-60
2022/12/01 06:28:55;;;;;;;4.60;1.50;;;;;;;-0.28;56.04;100759.23;24473;1331;3068716;-60
2022/12/01 06:31:24;;;;;;;4.50;1.50;;;;;;;-0.44;56.26;100758.11;24550;1324;3028904;-58
2022/12/01 06:33:53;;;;;;;4.90;1.60;;;;;;;-0.40;55.95;100754.85;24483;1340;3049002;-60
2022/12/01 06:36:22;;;;;;;5.00;1.90;;;;;;;-0.37;55.88;100751.43;24596;1324;3028240;-62
2022/12/01 06:38:51;;;;;;;3.30;1.40;;;;;;;-0.40;56.17;100751.59;24496;1322;3052577;-58
2022/12/01 06:41:20;;;;;;;3.60;1.80;;;;;;;-0.24;55.89;100740.29;24547;1324;3028556;-60
2022/12/01 06:43:49;;;;;;;5.40;1.50;;;;;;;-0.21;55.40;100739.27;24531;1324;3051554;-59
2022/12/01 06:46:17;;;;;;;3.30;1.40;;;;;;;-0.10;55.43;100741.38;24547;1331;3026945;-60
2022/12/01 06:48:48;;;;;;;4.90;1.40;;;;;;;-0.20;55.17;100742.20;24492;1331;3052892;-60
2022/12/01 06:51:17;;;;;;;4.70;1.40;;;;;;;-0.27;55.44;100742.34;24488;1330;3026112;-60
2022/12/01 06:53:46;;;;;;;3.00;1.30;;;;;;;-0.13;55.24;100742.05;24572;1334;3028501;-59
2022/12/01 06:56:16;;;;;;;6.50;1.80;;;;;;;-0.25;55.43;100733.91;24555;1331;3053188;-61
2022/12/01 06:58:46;;;;;;;3.60;1.50;;;;;;;-0.18;55.00;100739.80;24499;1331;3028830;-61
2022/12/01 07:01:15;;;;;;;4.20;1.80;;;;;;;-0.13;54.79;100732.07;24520;1332;3026815;-59
2022/12/01 07:03:48;;;;;;;4.00;1.90;;;;;;;-0.24;54.90;100730.30;24503;1334;3028415;-60
2022/12/01 07:06:18;;;;;;;2.50;1.60;;;;;;;-0.31;55.38;100720.98;24552;1324;3069073;-60
2022/12/01 07:08:47;;;;;;;2.80;1.10;;;;;;;-0.12;54.34;100723.11;24505;1316;3025780;-59
2022/12/01 07:11:16;;;;;;;2.10;1.10;;;;;;;-0.09;54.09;100722.61;24513;1331;3048809;-60
2022/12/01 07:13:45;;;;;;;5.50;1.80;;;;;;;-0.03;53.85;100724.86;24500;1330;3028072;-63
2022/12/01 07:16:14;;;;;;;3.60;1.60;;;;;;;-0.03;53.85;100719.70;24549;1331;3052505;-60
2022/12/01 07:18:43;;;;;;;3.10;1.30;;;;;;;0.06;53.50;100722.82;24541;1330;3025804;-63
2022/12/01 07:21:13;;;;;;;5.70;2.00;;;;;;;-0.04;53.46;100719.35;24507;1330;3051018;-64
2022/12/01 07:23:43;;;;;;;4.60;2.00;;;;;;;0.03;53.16;100718.85;24526;1324;3026477;-62
2022/12/01 07:26:17;;;;;;;5.00;2.10;;;;;;;0.18;52.83;100719.23;24668;1332;3028946;-61
2022/12/01 07:28:46;;;;;;;8.20;2.40;;;;;;;0.24;52.36;100717.86;24555;1337;3069317;-63
2022/12/01 07:31:17;;;;;;;4.50;2.00;;;;;;;0.35;51.93;100719.77;24560;1331;3028898;-62
2022/12/01 07:33:46;;;;;;;4.00;1.60;;;;;;;0.30;51.83;100721.66;24536;1331;3026263;-60
2022/12/01 07:36:16;;;;;;;3.50;1.40;;;;;;;0.28;51.43;100723.55;24536;1330;3029056;-65
2022/12/01 07:38:45;;;;;;;3.70;1.30;;;;;;;0.35;51.27;100728.73;24538;1330;3025172;-61
2022/12/01 07:41:17;;;;;;;4.80;1.70;;;;;;;0.45;50.74;100726.67;24508;1323;3055565;-63
2022/12/01 07:43:47;;;;;;;3.40;0.90;;;;;;;0.43;50.47;100720.13;24515;1331;3027758;-61
2022/12/01 07:46:18;;;;;;;2.90;1.00;;;;;;;0.47;49.88;100721.34;24498;1331;3026063;-60
2022/12/01 07:48:48;;;;;;;3.50;1.10;;;;;;;0.64;49.40;100723.42;24538;1324;3056280;-61
2022/12/01 07:51:17;;;;;;;2.60;0.90;;;;;;;0.61;49.21;100721.52;24520;1328;3027632;-62
2022/12/01 07:53:50;;;;;;;3.50;1.30;;;;;;;0.84;49.02;100720.99;24477;1331;3049218;-59
2022/12/01 07:56:20;;;;;;;1.80;1.10;;;;;;;0.91;48.49;100718.23;24600;1331;3027989;-58
2022/12/01 07:58:50;;;;;;;2.70;1.10;;;;;;;1.01;48.03;100715.48;24582;1331;3027150;-61
2022/12/01 08:01:21;;;;;;;3.20;1.80;;;;;;;1.00;47.64;100713.90;24675;1323;3026295;-61
2022/12/01 08:03:52;;;;;;;3.50;1.90;;;;;;;0.91;47.29;100712.89;24585;1329;3026372;-61
2022/12/01 08:06:22;;;;;;;5.10;1.60;;;;;;;0.91;47.04;100714.95;24588;1331;3026632;-60
2022/12/01 12:03:38;;;;;;;3.60;1.20;;;;;;;4.38;44.13;100563.51;30666;1337;3015632;-59
2022/12/01 12:06:12;;;;;;;5.70;1.60;;;;;;;4.59;44.60;100558.08;24453;1340;3069463;-61
2022/12/01 12:08:48;;;;;;;10.50;2.10;;;;;;;4.75;44.38;100570.65;24470;1337;3025917;-58
2022/12/01 12:11:21;;;;;;;6.50;2.00;;;;;;;4.89;43.01;100570.21;24479;1337;3057008;-64
2022/12/01 12:13:59;;;;;;;4.30;1.60;;;;;;;4.92;41.92;100572.92;24413;1335;3026259;-60
2022/12/01 12:16:56;;;;;;;7.20;1.70;;;;;;;5.02;42.14;100567.86;23701;1338;4683978;-62
2022/12/01 12:19:39;;;;;;;17.10;2.50;;;;;;;4.90;42.77;100557.49;24525;1333;3056329;-59
2022/12/01 12:22:58;;;;;;;9.10;1.80;;;;;;;4.98;43.36;100560.30;24536;1332;3051861;-60
2022/12/01 12:25:46;;;;;;;;;;;;;;;5.12;43.19;100558.98;24533;1331;3052434;-57
2022/12/01 12:28:21;;;;;;;5.20;1.30;;;;;;;5.00;43.42;100562.86;24507;1323;3049748;-63
2022/12/01 12:30:56;;;;;;;4.70;1.50;;;;;;;5.00;43.15;100561.99;24476;1326;3052691;-61
2022/12/01 12:33:25;;;;;;;5.70;1.50;;;;;;;4.90;42.48;100566.53;24521;1340;3048553;-59
2022/12/01 12:35:58;;;;;;;6.60;1.40;;;;;;;4.81;41.73;100563.23;24479;1333;3028241;-61
2022/12/01 12:38:31;;;;;;;5.50;1.40;;;;;;;4.70;42.03;100558.07;24487;1331;3024923;-60
2022/12/01 12:41:30;;;;;;;4.30;1.70;;;;;;;4.74;41.97;100563.04;24485;1331;3029107;-61
2022/12/01 12:44:08;;;;;;;4.10;1.60;;;;;;;4.53;42.35;100563.76;24554;1333;3051932;-58
2022/12/01 12:46:46;;;;;;;4.50;1.50;;;;;;;4.58;42.09;100561.58;24512;1334;3052150;-60
2022/12/01 12:49:54;;;;;;;2.70;1.10;;;;;;;4.48;42.08;100568.70;24474;1334;3052135;-60
2022/12/01 12:52:25;;;;;;;3.70;1.20;;;;;;;4.41;42.33;100566.41;24534;1333;3051915;-61
2022/12/01 12:54:58;;;;;;;3.10;0.70;;;;;;;4.31;42.31;100569.17;24515;1331;3026843;-57
2022/12/01 12:57:27;;;;;;;;;;;;;;;4.28;42.63;100574.25;24451;1332;3068333;-59
2022/12/01 13:00:01;;;;;;;4.90;1.20;;;;;;;4.30;42.92;100580.30;24508;1332;3028176;-63
2022/12/01 13:03:14;;;;;;;4.30;1.40;;;;;;;4.27;43.22;100579.99;24572;1331;3049777;-56
2022/12/01 13:05:53;;;;;;;4.20;1.70;;;;;;;4.22;42.98;100581.63;24436;1339;3068957;-60
2022/12/01 13:08:52;;;;;;;4.90;1.30;;;;;;;4.15;42.83;100578.10;24506;1333;3049501;-64
2022/12/01 13:11:22;;;;;;;;;;;;;;;4.14;41.93;100573.95;24537;1323;3056389;-64
2022/12/01 13:13:57;;;;;;;7.00;2.00;;;;;;;4.01;41.44;100578.34;24521;1332;3026295;-61
2022/12/01 13:16:34;;;;;;;4.00;1.10;;;;;;;3.91;40.94;100573.80;24473;1332;3053907;-66
2022/12/01 13:19:24;;;;;;;3.80;1.40;;;;;;;3.88;40.38;100575.59;24606;1324;3026640;-66
2022/12/01 13:21:54;;;;;;;2.50;1.40;;;;;;;3.83;40.13;100579.65;24449;1331;3052966;-63
2022/12/01 13:24:24;;;;;;;4.30;1.20;;;;;;;3.78;40.17;100578.52;24494;1333;3028565;-62
2022/12/01 13:26:56;;;;;;;5.60;1.50;;;;;;;3.88;40.27;100582.70;24527;1331;3050571;-66
2022/12/01 13:29:33;;;;;;;5.50;1.60;;;;;;;3.70;40.01;100579.33;24514;1336;3026593;-63
2022/12/01 13:32:01;;;;;;;5.90;2.00;;;;;;;3.75;40.03;100582.89;24482;1334;3048566;-65
2022/12/01 13:34:38;;;;;;;6.00;1.70;;;;;;;3.73;40.27;100587.77;24509;1326;3026115;-68
2022/12/01 13:37:08;;;;;;;4.20;1.20;;;;;;;3.73;40.24;100589.50;24486;1330;3049738;-66
2022/12/01 13:39:39;;;;;;;4.60;1.70;;;;;;;3.69;40.46;100587.30;24486;1328;3026543;-62
2022/12/01 13:42:23;;;;;;;5.00;2.20;;;;;;;3.62;40.34;100583.08;24617;1340;3026250;-63
2022/12/01 13:44:57;;;;;;;7.20;1.80;;;;;;;3.59;40.46;100584.16;24540;1336;3053672;-62
2022/12/01 13:47:45;;;;;;;3.80;1.30;;;;;;;3.60;40.44;100588.83;24443;1333;3027645;-59
2022/12/01 13:50:42;;;;;;;9.00;2.10;;;;;;;3.59;40.42;100586.93;24491;1340;3052357;-59
2022/12/01 13:53:12;;;;;;;4.10;1.70;;;;;;;3.47;40.40;100589.52;24494;1323;3050358;-62
2022/12/01 13:56:14;;;;;;;9.20;2.70;;;;;;;3.41;38.58;100589.60;24491;1331;3028688;-64
2022/12/01 13:58:47;;;;;;;7.50;2.10;;;;;;;3.29;38.35;100590.96;24423;1331;3053069;-68
2022/12/01 14:01:19;;;;;;;5.00;2.20;;;;;;;3.35;38.53;100590.55;24498;1330;3056776;-66
2022/12/01 14:03:53;;;;;;;5.40;2.60;;;;;;;3.29;38.35;100589.91;24520;1323;3028365;-60
2022/12/01 14:06:29;;;;;;;4.80;2.50;;;;;;;3.22;38.18;100592.27;24491;1331;3053055;-64
2022/12/01 14:09:06;;;;;;;8.20;2.60;;;;;;;3.27;38.04;100588.40;24505;1331;3051051;-65
2022/12/01 14:11:36;;;;;;;7.20;2.90;;;;;;;3.09;37.74;100590.52;24462;1334;3055385;-60
2022/12/01 14:14:08;;;;;;;6.70;2.80;;;;;;;2.89;37.78;100590.06;24509;1327;3026010;-68
2022/12/01 14:16:51;;;;;;;10.20;3.00;;;;;;;2.86;37.71;100591.80;24517;1330;3050938;-65
2022/12/01 14:19:44;;;;;;;4.90;2.30;;;;;;;2.81;37.83;100583.73;24498;1330;3052212;-60
2022/12/01 14:22:37;;;;;;;6.70;2.60;;;;;;;2.68;38.48;100584.73;24488;1333;3048669;-66
2022/12/01 14:25:18;;;;;;;7.00;2.50;;;;;;;2.50;37.74;100580.06;24434;1327;3069049;-61
2022/12/01 14:27:50;;;;;;;8.20;2.50;;;;;;;2.43;37.78;100581.17;24503;1330;3049509;-64
2022/12/01 14:30:37;;;;;;;6.80;2.10;;;;;;;2.50;38.05;100585.61;24543;1330;3027324;-64
2022/12/01 14:33:38;;;;;;;6.60;2.20;;;;;;;2.39;37.41;100586.05;24577;1327;3052053;-61
2022/12/01 14:36:36;;;;;;;4.60;2.30;;;;;;;2.16;37.60;100589.71;24485;1333;3053224;-62
2022/12/01 14:39:13;;;;;;;8.70;2.00;;;;;;;2.12;37.44;100593.90;24424;1333;3050673;-64
2022/12/01 14:41:48;;;;;;;7.30;2.30;;;;;;;2.11;37.69;100595.96;24479;1334;3052470;-66
2022/12/01 14:44:40;;;;;;;6.20;2.00;;;;;;;2.10;37.56;100592.16;24440;1332;3049400;-66
2022/12/01 14:47:26;;;;;;;10.10;2.90;;;;;;;2.04;37.64;100591.52;24485;1327;3069662;-62
2022/12/01 14:50:08;;;;;;;6.70;2.20;;;;;;;1.97;37.51;100590.03;24497;1336;3050235;-60
2022/12/01 14:52:44;;;;;;;5.20;2.10;;;;;;;1.96;38.04;100589.17;24484;1336;3057119;-63
2022/12/01 14:55:24;;;;;;;7.10;2.60;;;;;;;1.87;38.03;100589.58;24500;1333;3051643;-60
2022/12/01 14:58:27;;;;;;;8.60;2.40;;;;;;;1.87;37.95;100589.40;24427;1340;3052967;-63
2022/12/01 15:01:03;;;;;;;12.20;3.80;;;;;;;1.83;37.81;100583.23;24431;1332;3051035;-63
2022/12/01 15:03:38;;;;;;;5.40;2.40;;;;;;;1.83;37.88;100584.24;24505;1333;3052512;-63
2022/12/01 15:06:07;;;;;;;6.60;2.20;;;;;;;1.85;38.39;100585.10;24516;1337;3048924;-67
2022/12/01 15:08:37;;;;;;;4.70;2.30;;;;;;;1.94;38.38;100587.10;24476;1333;3028247;-63
2022/12/01 15:11:06;;;;;;;8.00;2.20;;;;;;;1.98;38.71;100580.52;24498;1324;3053327;-64
2022/12/01 15:13:49;;;;;;;6.10;2.60;;;;;;;1.89;38.99;100577.65;24545;1317;3026687;-64
2022/12/01 15:16:21;;;;;;;7.00;2.40;;;;;;;1.86;38.92;100588.89;24504;1333;3049417;-67
2022/12/01 15:18:51;;;;;;;4.80;2.10;;;;;;;1.86;38.94;100586.48;24536;1333;3026255;-65
2022/12/01 15:21:24;;;;;;;6.40;2.10;;;;;;;1.75;38.14;100582.23;24459;1325;3024970;-64
2022/12/01 15:24:04;;;;;;;5.60;2.00;;;;;;;1.77;37.75;100584.63;24502;1333;3050694;-62
2022/12/01 15:26:35;;;;;;;5.60;2.30;;;;;;;1.76;38.05;100591.39;24524;1329;3052948;-65
2022/12/01 15:29:13;;;;;;;7.20;2.40;;;;;;;1.79;37.63;100592.73;24534;1336;3026713;-67
2022/12/01 15:31:46;;;;;;;7.50;2.30;;;;;;;1.75;37.96;100589.65;24513;1331;3068351;-63
2022/12/01 15:34:18;;;;;;;6.50;2.70;;;;;;;1.71;37.50;100588.48;24472;1333;3025865;-65
2022/12/01 15:36:47;;;;;;;8.40;2.50;;;;;;;1.59;37.84;100592.52;24509;1335;3026222;-64
2022/12/01 15:39:18;;;;;;;9.30;2.40;;;;;;;1.61;38.31;100593.37;24494;1337;3026655;-63
2022/12/01 15:41:52;;;;;;;5.50;2.10;;;;;;;1.66;37.82;100591.27;24478;1335;3050280;-60
2022/12/01 15:44:26;;;;;;;9.00;2.70;;;;;;;1.54;37.91;100591.16;24485;1331;3028684;-62
2022/12/01 15:47:48;;;;;;;6.00;2.20;;;;;;;1.54;37.96;100589.95;24490;1334;3051827;-63
2022/12/01 15:50:37;;;;;;;6.80;3.00;;;;;;;1.64;37.95;100590.07;24509;1329;3026074;-64
2022/12/01 15:53:18;;;;;;;5.60;2.60;;;;;;;1.50;38.12;100590.67;24513;1324;3050956;-63
2022/12/01 15:55:47;;;;;;;6.60;2.60;;;;;;;1.52;37.91;100592.20;24518;1333;3052914;-62
2022/12/01 15:58:24;;;;;;;10.40;3.40;;;;;;;1.52;37.94;100593.08;24489;1334;3028455;-64
2022/12/01 16:01:04;;;;;;;9.40;3.10;;;;;;;1.63;38.13;100590.95;24464;1328;3068401;-60
2022/12/01 16:03:35;;;;;;;6.70;2.60;;;;;;;1.49;38.00;100593.60;24495;1329;3050088;-65
2022/12/01 16:06:07;;;;;;;11.50;2.40;;;;;;;1.39;37.79;100598.32;24507;1336;3026424;-63
2022/12/01 16:08:36;;;;;;;5.90;2.00;;;;;;;1.45;37.66;100599.16;24424;1334;3028809;-63
2022/12/01 16:11:14;;;;;;;5.70;2.10;;;;;;;1.48;38.25;100605.52;24534;1330;3028711;-64
2022/12/01 16:14:01;;;;;;;5.90;2.20;;;;;;;1.53;38.21;100601.01;24485;1335;3056616;-67
2022/12/01 16:16:38;;;;;;;4.80;2.10;;;;;;;1.50;38.17;100593.27;24476;1326;3052055;-63
2022/12/01 16:19:10;;;;;;;5.70;2.40;;;;;;;1.41;37.88;100596.07;24555;1333;3053675;-59
2022/12/01 16:21:45;;;;;;;4.80;2.40;;;;;;;1.43;37.62;100591.73;24542;1329;3050685;-61
2022/12/01 16:24:21;;;;;;;4.90;2.10;;;;;;;1.53;37.84;100591.85;24459;1336;3028613;-61
2022/12/01 16:26:54;;;;;;;6.10;2.30;;;;;;;1.49;38.07;100595.34;24529;1333;3048824;-63
2022/12/01 16:29:24;;;;;;;6.00;2.10;;;;;;;1.41;38.30;100593.66;24565;1332;3027888;-63
2022/12/01 16:32:16;;;;;;;11.00;2.60;;;;;;;1.41;38.28;100596.06;24562;1341;3026311;-62
2022/12/01 16:34:46;;;;;;;6.90;2.50;;;;;;;1.37;38.38;100598.15;24502;1337;3057528;-61
2022/12/01 16:37:15;;;;;;;7.70;3.10;;;;;;;1.45;38.51;100600.36;24554;1333;3026687;-64
2022/12/01 16:39:44;;;;;;;7.40;2.70;;;;;;;1.45;38.29;100601.05;24437;1327;3028002;-67
2022/12/01 16:42:14;;;;;;;9.50;3.10;;;;;;;1.45;38.12;100596.39;24533;1324;3056234;-65
2022/12/01 16:44:45;;;;;;;7.60;2.40;;;;;;;1.50;38.29;100599.83;24485;1332;3026322;-67
2022/12/01 19:36:31;;;;;;;5.60;2.30;;;;;;;0.07;41.92;100574.48;30739;1343;3011935;-66
2022/12/01 19:39:29;;;;;;;8.10;2.30;;;;;;;0.23;41.92;100575.34;24466;1337;3069169;-69
2022/12/01 19:41:59;;;;;;;4.50;2.20;;;;;;;0.28;41.68;100576.55;24451;1338;3027099;-64
2022/12/01 19:44:28;;;;;;;3.60;1.80;;;;;;;0.26;41.67;100579.13;24447;1331;3025850;-68
2022/12/01 19:46:57;;;;;;;6.70;2.30;;;;;;;0.31;41.86;100574.99;24392;1340;3068216;-64
2022/12/01 19:49:26;;;;;;;6.30;2.30;;;;;;;0.23;41.80;100577.06;23757;1330;4364720;-69
2022/12/01 19:51:55;;;;;;;5.00;2.20;;;;;;;0.36;41.57;100581.02;24439;1340;3048304;-64
2022/12/01 19:54:25;;;;;;;4.70;1.90;;;;;;;0.35;41.37;100578.09;24504;1326;3026454;-66
2022/12/01 19:56:54;;;;;;;5.30;2.00;;;;;;;0.48;41.56;100578.41;24479;1319;3028236;-65
2022/12/01 19:59:22;;;;;;;4.80;1.80;;;;;;;0.49;41.23;100579.11;24522;1336;3048766;-63
2022/12/01 20:01:52;;;;;;;3.60;1.70;;;;;;;0.36;41.63;100583.26;24442;1335;3028655;-63
2022/12/01 20:04:21;;;;;;;4.60;2.10;;;;;;;0.44;41.79;100583.25;24493;1336;3052033;-64
2022/12/01 20:06:50;;;;;;;3.80;1.90;;;;;;;0.41;41.58;100582.56;24507;1333;3028501;-63
2022/12/01 20:09:44;;;;;;;;;;;;;;;0.48;41.83;100584.28;24451;1326;3051320;-63
2022/12/01 20:12:13;;;;;;;6.20;1.70;;;;;;;0.41;42.05;100585.50;24533;1327;3028468;-64
2022/12/01 20:14:42;;;;;;;5.20;1.70;;;;;;;0.33;42.34;100586.02;24461;1334;3053259;-63
2022/12/01 20:17:36;;;;;;;5.80;1.90;;;;;;;0.26;42.45;100587.06;24462;1324;3050732;-68
2022/12/01 20:20:06;;;;;;;4.90;1.90;;;;;;;0.38;42.27;100583.95;24471;1339;3025833;-65
2022/12/01 20:22:36;;;;;;;5.50;2.10;;;;;;;0.48;42.17;100585.66;24556;1332;3026920;-62